sensor_id;sensor_type;location;lat;lon;timestamp;P1;durP1;ratioP1;P2;durP2;ratioP2
59042;SDS011;44826;51.596;5.624;2022-07-11T00:00:01;5.65;;;3.30;;
59042;SDS011;44826;51.596;5.624;2022-07-11T00:02:28;5.93;;;3.22;;
59042;SDS011;44826;51.596;5.624;2022-07-11T00:04:53;5.88;;;3.80;;
59042;SDS011;44826;51.596;5.624;2022-07-11T00:07:18;6.53;;;3.90;;
59042;SDS011;44826;51.596;5.624;2022-07-11T00:09:44;7.18;;;4.47;;
59042;SDS011;44826;51.596;5.624;2022-07-11T00:12:10;7.00;;;4.10;;
59042;SDS011;44826;51.596;5.624;2022-07-11T00:14:37;6.45;;;3.97;;
59042;SDS011;44826;51.596;5.624;2022-07-11T00:17:04;8.13;;;4.13;;
59042;SDS011;44826;51.596;5.624;2022-07-11T00:19:30;7.00;;;4.43;;
59042;SDS011;44826;51.596;5.624;2022-07-11T00:21:56;8.18;;;4.43;;
59042;SDS011;44826;51.596;5.624;2022-07-11T00:24:21;7.00;;;4.60;;
59042;SDS011;44826;51.596;5.624;2022-07-11T00:26:47;6.70;;;4.60;;
59042;SDS011;44826;51.596;5.624;2022-07-11T00:29:13;7.97;;;4.45;;
59042;SDS011;44826;51.596;5.624;2022-07-11T00:31:39;10.15;;;4.55;;
59042;SDS011;44826;51.596;5.624;2022-07-11T00:34:04;7.38;;;4.82;;
59042;SDS011;44826;51.596;5.624;2022-07-11T00:36:30;8.93;;;4.50;;
59042;SDS011;44826;51.596;5.624;2022-07-11T00:38:56;10.13;;;4.80;;
59042;SDS011;44826;51.596;5.624;2022-07-11T00:41:21;9.65;;;5.07;;
59042;SDS011;44826;51.596;5.624;2022-07-11T00:43:54;6.68;;;4.93;;
59042;SDS011;44826;51.596;5.624;2022-07-11T00:46:21;7.93;;;4.55;;
59042;SDS011;44826;51.596;5.624;2022-07-11T00:48:47;7.90;;;5.07;;
59042;SDS011;44826;51.596;5.624;2022-07-11T00:51:12;8.60;;;5.22;;
59042;SDS011;44826;51.596;5.624;2022-07-11T00:53:38;6.97;;;4.53;;
59042;SDS011;44826;51.596;5.624;2022-07-11T00:56:04;8.00;;;4.72;;
59042;SDS011;44826;51.596;5.624;2022-07-11T00:58:30;7.60;;;4.85;;
59042;SDS011;44826;51.596;5.624;2022-07-11T01:00:56;7.53;;;4.75;;
59042;SDS011;44826;51.596;5.624;2022-07-11T01:03:22;6.68;;;4.82;;
59042;SDS011;44826;51.596;5.624;2022-07-11T01:05:47;6.43;;;4.85;;
59042;SDS011;44826;51.596;5.624;2022-07-11T01:08:13;6.90;;;4.95;;
59042;SDS011;44826;51.596;5.624;2022-07-11T01:10:38;8.15;;;5.07;;
59042;SDS011;44826;51.596;5.624;2022-07-11T01:13:03;7.60;;;4.90;;
59042;SDS011;44826;51.596;5.624;2022-07-11T01:15:29;7.72;;;4.97;;
59042;SDS011;44826;51.596;5.624;2022-07-11T01:17:54;9.95;;;5.55;;
59042;SDS011;44826;51.596;5.624;2022-07-11T01:20:20;8.73;;;5.72;;
59042;SDS011;44826;51.596;5.624;2022-07-11T01:22:47;7.95;;;5.40;;
59042;SDS011;44826;51.596;5.624;2022-07-11T01:25:16;11.38;;;5.40;;
59042;SDS011;44826;51.596;5.624;2022-07-11T01:28:00;8.93;;;5.22;;
59042;SDS011;44826;51.596;5.624;2022-07-11T01:30:27;9.13;;;5.38;;
59042;SDS011;44826;51.596;5.624;2022-07-11T01:32:54;9.82;;;5.72;;
59042;SDS011;44826;51.596;5.624;2022-07-11T01:35:19;8.13;;;5.53;;
59042;SDS011;44826;51.596;5.624;2022-07-11T01:37:46;10.50;;;5.82;;
59042;SDS011;44826;51.596;5.624;2022-07-11T01:40:11;8.27;;;5.63;;
59042;SDS011;44826;51.596;5.624;2022-07-11T01:42:37;8.05;;;5.65;;
59042;SDS011;44826;51.596;5.624;2022-07-11T01:45:02;8.98;;;5.40;;
59042;SDS011;44826;51.596;5.624;2022-07-11T01:47:28;7.85;;;5.63;;
59042;SDS011;44826;51.596;5.624;2022-07-11T01:49:53;10.95;;;5.53;;
59042;SDS011;44826;51.596;5.624;2022-07-11T01:52:20;8.95;;;5.53;;
59042;SDS011;44826;51.596;5.624;2022-07-11T01:54:45;10.15;;;5.70;;
59042;SDS011;44826;51.596;5.624;2022-07-11T01:57:10;10.32;;;5.65;;
59042;SDS011;44826;51.596;5.624;2022-07-11T01:59:36;8.48;;;5.07;;
59042;SDS011;44826;51.596;5.624;2022-07-11T02:02:01;6.97;;;4.93;;
59042;SDS011;44826;51.596;5.624;2022-07-11T02:04:27;6.78;;;5.07;;
59042;SDS011;44826;51.596;5.624;2022-07-11T02:06:52;8.23;;;5.25;;
59042;SDS011;44826;51.596;5.624;2022-07-11T02:09:17;9.30;;;5.35;;
59042;SDS011;44826;51.596;5.624;2022-07-11T02:11:43;7.28;;;4.82;;
59042;SDS011;44826;51.596;5.624;2022-07-11T02:14:08;7.97;;;5.05;;
59042;SDS011;44826;51.596;5.624;2022-07-11T02:16:33;8.18;;;5.15;;
59042;SDS011;44826;51.596;5.624;2022-07-11T02:18:59;8.93;;;5.22;;
59042;SDS011;44826;51.596;5.624;2022-07-11T02:21:24;7.88;;;5.05;;
59042;SDS011;44826;51.596;5.624;2022-07-11T02:23:49;7.45;;;5.03;;
59042;SDS011;44826;51.596;5.624;2022-07-11T02:26:15;8.80;;;4.85;;
59042;SDS011;44826;51.596;5.624;2022-07-11T02:28:40;8.50;;;4.75;;
59042;SDS011;44826;51.596;5.624;2022-07-11T02:31:07;8.35;;;5.07;;
59042;SDS011;44826;51.596;5.624;2022-07-11T02:33:32;8.57;;;4.40;;
59042;SDS011;44826;51.596;5.624;2022-07-11T02:35:58;6.90;;;4.75;;
59042;SDS011;44826;51.596;5.624;2022-07-11T02:38:23;8.57;;;4.93;;
59042;SDS011;44826;51.596;5.624;2022-07-11T02:40:48;8.32;;;4.65;;
59042;SDS011;44826;51.596;5.624;2022-07-11T02:43:14;7.50;;;4.40;;
59042;SDS011;44826;51.596;5.624;2022-07-11T02:45:40;7.70;;;4.63;;
59042;SDS011;44826;51.596;5.624;2022-07-11T02:48:05;6.47;;;4.28;;
59042;SDS011;44826;51.596;5.624;2022-07-11T02:50:31;5.93;;;3.92;;
59042;SDS011;44826;51.596;5.624;2022-07-11T02:52:56;7.70;;;4.55;;
59042;SDS011;44826;51.596;5.624;2022-07-11T02:55:21;10.20;;;4.22;;
59042;SDS011;44826;51.596;5.624;2022-07-11T02:57:47;7.70;;;4.13;;
59042;SDS011;44826;51.596;5.624;2022-07-11T03:00:13;6.53;;;3.70;;
59042;SDS011;44826;51.596;5.624;2022-07-11T03:02:41;7.00;;;3.70;;
59042;SDS011;44826;51.596;5.624;2022-07-11T03:05:06;6.93;;;3.78;;
59042;SDS011;44826;51.596;5.624;2022-07-11T03:07:32;4.93;;;3.35;;
59042;SDS011;44826;51.596;5.624;2022-07-11T03:09:58;6.18;;;3.78;;
59042;SDS011;44826;51.596;5.624;2022-07-11T03:12:23;6.55;;;3.47;;
59042;SDS011;44826;51.596;5.624;2022-07-11T03:14:49;7.07;;;3.70;;
59042;SDS011;44826;51.596;5.624;2022-07-11T03:17:17;6.32;;;3.28;;
59042;SDS011;44826;51.596;5.624;2022-07-11T03:19:43;7.72;;;4.10;;
59042;SDS011;44826;51.596;5.624;2022-07-11T03:22:08;5.13;;;3.25;;
59042;SDS011;44826;51.596;5.624;2022-07-11T03:24:34;4.60;;;3.38;;
59042;SDS011;44826;51.596;5.624;2022-07-11T03:26:59;6.50;;;3.30;;
59042;SDS011;44826;51.596;5.624;2022-07-11T03:29:24;6.32;;;3.22;;
59042;SDS011;44826;51.596;5.624;2022-07-11T03:31:50;6.30;;;2.85;;
59042;SDS011;44826;51.596;5.624;2022-07-11T03:34:15;5.22;;;3.28;;
59042;SDS011;44826;51.596;5.624;2022-07-11T03:36:40;9.05;;;3.25;;
59042;SDS011;44826;51.596;5.624;2022-07-11T03:39:05;5.90;;;3.17;;
59042;SDS011;44826;51.596;5.624;2022-07-11T03:41:31;4.57;;;3.28;;
59042;SDS011;44826;51.596;5.624;2022-07-11T03:43:56;6.50;;;3.38;;
59042;SDS011;44826;51.596;5.624;2022-07-11T03:46:22;6.90;;;3.40;;
59042;SDS011;44826;51.596;5.624;2022-07-11T03:48:47;5.40;;;3.15;;
59042;SDS011;44826;51.596;5.624;2022-07-11T03:51:12;8.18;;;3.10;;
59042;SDS011;44826;51.596;5.624;2022-07-11T03:53:38;5.60;;;3.22;;
59042;SDS011;44826;51.596;5.624;2022-07-11T03:56:03;8.18;;;3.30;;
59042;SDS011;44826;51.596;5.624;2022-07-11T03:58:29;7.47;;;3.58;;
59042;SDS011;44826;51.596;5.624;2022-07-11T04:00:54;10.05;;;3.65;;
59042;SDS011;44826;51.596;5.624;2022-07-11T04:03:20;6.25;;;3.20;;
59042;SDS011;44826;51.596;5.624;2022-07-11T04:05:45;4.43;;;3.10;;
59042;SDS011;44826;51.596;5.624;2022-07-11T04:08:10;4.68;;;3.10;;
59042;SDS011;44826;51.596;5.624;2022-07-11T04:10:36;6.07;;;3.03;;
59042;SDS011;44826;51.596;5.624;2022-07-11T04:13:01;4.47;;;3.00;;
59042;SDS011;44826;51.596;5.624;2022-07-11T04:15:26;7.03;;;2.92;;
59042;SDS011;44826;51.596;5.624;2022-07-11T04:17:51;7.97;;;2.95;;
59042;SDS011;44826;51.596;5.624;2022-07-11T04:20:17;5.55;;;2.75;;
59042;SDS011;44826;51.596;5.624;2022-07-11T04:22:42;5.47;;;3.10;;
59042;SDS011;44826;51.596;5.624;2022-07-11T04:25:07;4.05;;;2.70;;
59042;SDS011;44826;51.596;5.624;2022-07-11T04:27:33;4.18;;;2.70;;
59042;SDS011;44826;51.596;5.624;2022-07-11T04:29:58;4.38;;;2.92;;
59042;SDS011;44826;51.596;5.624;2022-07-11T04:32:23;5.20;;;2.50;;
59042;SDS011;44826;51.596;5.624;2022-07-11T04:34:49;5.47;;;2.88;;
59042;SDS011;44826;51.596;5.624;2022-07-11T04:37:14;5.10;;;2.60;;
59042;SDS011;44826;51.596;5.624;2022-07-11T04:39:39;6.38;;;2.50;;
59042;SDS011;44826;51.596;5.624;2022-07-11T04:42:05;5.28;;;2.60;;
59042;SDS011;44826;51.596;5.624;2022-07-11T04:44:31;5.43;;;2.67;;
59042;SDS011;44826;51.596;5.624;2022-07-11T04:47:00;6.90;;;2.88;;
59042;SDS011;44826;51.596;5.624;2022-07-11T04:49:25;6.53;;;3.20;;
59042;SDS011;44826;51.596;5.624;2022-07-11T04:51:50;5.15;;;2.85;;
59042;SDS011;44826;51.596;5.624;2022-07-11T04:54:15;6.28;;;3.00;;
59042;SDS011;44826;51.596;5.624;2022-07-11T04:56:41;4.28;;;2.85;;
59042;SDS011;44826;51.596;5.624;2022-07-11T04:59:06;6.20;;;3.30;;
59042;SDS011;44826;51.596;5.624;2022-07-11T05:01:32;6.40;;;3.00;;
59042;SDS011;44826;51.596;5.624;2022-07-11T05:03:57;9.52;;;3.33;;
59042;SDS011;44826;51.596;5.624;2022-07-11T05:06:23;9.98;;;3.60;;
59042;SDS011;44826;51.596;5.624;2022-07-11T05:08:48;5.50;;;3.47;;
59042;SDS011;44826;51.596;5.624;2022-07-11T05:11:13;6.55;;;3.50;;
59042;SDS011;44826;51.596;5.624;2022-07-11T05:13:39;6.90;;;3.38;;
59042;SDS011;44826;51.596;5.624;2022-07-11T05:16:04;5.90;;;3.65;;
59042;SDS011;44826;51.596;5.624;2022-07-11T05:18:30;7.82;;;3.85;;
59042;SDS011;44826;51.596;5.624;2022-07-11T05:20:56;5.20;;;3.28;;
59042;SDS011;44826;51.596;5.624;2022-07-11T05:23:22;5.43;;;3.22;;
59042;SDS011;44826;51.596;5.624;2022-07-11T05:25:47;6.60;;;3.10;;
59042;SDS011;44826;51.596;5.624;2022-07-11T05:28:12;4.63;;;2.92;;
59042;SDS011;44826;51.596;5.624;2022-07-11T05:30:38;4.75;;;2.75;;
59042;SDS011;44826;51.596;5.624;2022-07-11T05:33:03;4.40;;;2.42;;
59042;SDS011;44826;51.596;5.624;2022-07-11T05:35:28;5.28;;;2.50;;
59042;SDS011;44826;51.596;5.624;2022-07-11T05:37:54;4.97;;;2.70;;
59042;SDS011;44826;51.596;5.624;2022-07-11T05:40:19;6.03;;;3.00;;
59042;SDS011;44826;51.596;5.624;2022-07-11T05:42:45;5.30;;;2.70;;
59042;SDS011;44826;51.596;5.624;2022-07-11T05:45:10;13.35;;;3.60;;
59042;SDS011;44826;51.596;5.624;2022-07-11T05:47:35;5.13;;;2.75;;
59042;SDS011;44826;51.596;5.624;2022-07-11T05:50:01;6.03;;;2.65;;
59042;SDS011;44826;51.596;5.624;2022-07-11T05:52:26;4.10;;;2.35;;
59042;SDS011;44826;51.596;5.624;2022-07-11T05:54:51;5.40;;;2.50;;
59042;SDS011;44826;51.596;5.624;2022-07-11T05:57:17;5.75;;;2.58;;
59042;SDS011;44826;51.596;5.624;2022-07-11T05:59:42;5.28;;;2.20;;
59042;SDS011;44826;51.596;5.624;2022-07-11T06:02:07;6.28;;;2.47;;
59042;SDS011;44826;51.596;5.624;2022-07-11T06:04:33;3.08;;;2.20;;
59042;SDS011;44826;51.596;5.624;2022-07-11T06:06:59;3.38;;;1.80;;
59042;SDS011;44826;51.596;5.624;2022-07-11T06:09:25;3.53;;;1.48;;
59042;SDS011;44826;51.596;5.624;2022-07-11T06:11:50;4.13;;;1.60;;
59042;SDS011;44826;51.596;5.624;2022-07-11T06:14:16;2.80;;;1.60;;
59042;SDS011;44826;51.596;5.624;2022-07-11T06:16:41;4.25;;;1.92;;
59042;SDS011;44826;51.596;5.624;2022-07-11T06:19:07;3.88;;;1.52;;
59042;SDS011;44826;51.596;5.624;2022-07-11T06:21:32;4.07;;;1.75;;
59042;SDS011;44826;51.596;5.624;2022-07-11T06:23:58;3.55;;;1.60;;
59042;SDS011;44826;51.596;5.624;2022-07-11T06:26:24;3.88;;;1.50;;
59042;SDS011;44826;51.596;5.624;2022-07-11T06:28:50;5.70;;;1.58;;
59042;SDS011;44826;51.596;5.624;2022-07-11T06:31:15;2.42;;;1.58;;
59042;SDS011;44826;51.596;5.624;2022-07-11T06:33:43;3.22;;;1.58;;
59042;SDS011;44826;51.596;5.624;2022-07-11T06:36:08;3.83;;;1.80;;
59042;SDS011;44826;51.596;5.624;2022-07-11T06:38:34;2.88;;;2.00;;
59042;SDS011;44826;51.596;5.624;2022-07-11T06:40:59;3.90;;;1.77;;
59042;SDS011;44826;51.596;5.624;2022-07-11T06:43:25;4.30;;;1.90;;
59042;SDS011;44826;51.596;5.624;2022-07-11T06:45:52;4.75;;;1.90;;
59042;SDS011;44826;51.596;5.624;2022-07-11T06:48:18;4.20;;;2.10;;
59042;SDS011;44826;51.596;5.624;2022-07-11T06:50:45;3.50;;;2.03;;
59042;SDS011;44826;51.596;5.624;2022-07-11T06:53:11;4.45;;;2.35;;
59042;SDS011;44826;51.596;5.624;2022-07-11T06:55:36;4.05;;;2.40;;
59042;SDS011;44826;51.596;5.624;2022-07-11T06:58:01;3.90;;;2.00;;
59042;SDS011;44826;51.596;5.624;2022-07-11T07:00:27;4.97;;;2.55;;
59042;SDS011;44826;51.596;5.624;2022-07-11T07:02:56;3.60;;;2.15;;
59042;SDS011;44826;51.596;5.624;2022-07-11T07:05:25;3.80;;;2.40;;
59042;SDS011;44826;51.596;5.624;2022-07-11T07:07:51;5.32;;;2.53;;
59042;SDS011;44826;51.596;5.624;2022-07-11T07:10:17;3.78;;;2.22;;
59042;SDS011;44826;51.596;5.624;2022-07-11T07:12:42;4.28;;;2.50;;
59042;SDS011;44826;51.596;5.624;2022-07-11T07:15:09;3.38;;;2.40;;
59042;SDS011;44826;51.596;5.624;2022-07-11T07:17:35;2.60;;;1.95;;
59042;SDS011;44826;51.596;5.624;2022-07-11T07:20:00;2.80;;;2.00;;
59042;SDS011;44826;51.596;5.624;2022-07-11T07:22:26;3.22;;;1.92;;
59042;SDS011;44826;51.596;5.624;2022-07-11T07:24:51;3.22;;;1.77;;
59042;SDS011;44826;51.596;5.624;2022-07-11T07:27:16;2.22;;;1.60;;
59042;SDS011;44826;51.596;5.624;2022-07-11T07:29:41;2.10;;;1.40;;
59042;SDS011;44826;51.596;5.624;2022-07-11T07:32:07;3.42;;;1.55;;
59042;SDS011;44826;51.596;5.624;2022-07-11T07:34:32;2.30;;;1.50;;
59042;SDS011;44826;51.596;5.624;2022-07-11T07:36:58;2.25;;;1.40;;
59042;SDS011;44826;51.596;5.624;2022-07-11T07:39:24;2.85;;;1.80;;
59042;SDS011;44826;51.596;5.624;2022-07-11T07:41:50;2.45;;;1.20;;
59042;SDS011;44826;51.596;5.624;2022-07-11T07:44:15;2.90;;;1.50;;
59042;SDS011;44826;51.596;5.624;2022-07-11T07:46:40;2.10;;;1.30;;
59042;SDS011;44826;51.596;5.624;2022-07-11T07:49:06;1.77;;;1.30;;
59042;SDS011;44826;51.596;5.624;2022-07-11T07:51:31;1.85;;;1.50;;
59042;SDS011;44826;51.596;5.624;2022-07-11T07:53:57;1.63;;;1.40;;
59042;SDS011;44826;51.596;5.624;2022-07-11T07:56:23;1.67;;;1.30;;
59042;SDS011;44826;51.596;5.624;2022-07-11T07:58:48;3.40;;;1.48;;
59042;SDS011;44826;51.596;5.624;2022-07-11T08:01:16;3.10;;;1.40;;
59042;SDS011;44826;51.596;5.624;2022-07-11T08:04:00;1.50;;;1.17;;
59042;SDS011;44826;51.596;5.624;2022-07-11T08:06:25;2.67;;;1.50;;
59042;SDS011;44826;51.596;5.624;2022-07-11T08:08:51;1.60;;;1.50;;
59042;SDS011;44826;51.596;5.624;2022-07-11T08:11:16;1.83;;;1.60;;
59042;SDS011;44826;51.596;5.624;2022-07-11T08:13:41;3.33;;;1.67;;
59042;SDS011;44826;51.596;5.624;2022-07-11T08:16:07;2.00;;;1.42;;
59042;SDS011;44826;51.596;5.624;2022-07-11T08:18:33;2.00;;;1.20;;
59042;SDS011;44826;51.596;5.624;2022-07-11T08:20:59;1.95;;;1.42;;
59042;SDS011;44826;51.596;5.624;2022-07-11T08:23:25;1.63;;;1.25;;
59042;SDS011;44826;51.596;5.624;2022-07-11T08:25:50;3.00;;;1.40;;
59042;SDS011;44826;51.596;5.624;2022-07-11T08:28:16;1.98;;;1.50;;
59042;SDS011;44826;51.596;5.624;2022-07-11T08:30:41;1.95;;;1.50;;
59042;SDS011;44826;51.596;5.624;2022-07-11T08:33:06;2.83;;;1.75;;
59042;SDS011;44826;51.596;5.624;2022-07-11T08:35:31;3.63;;;2.10;;
59042;SDS011;44826;51.596;5.624;2022-07-11T08:37:57;3.10;;;2.15;;
59042;SDS011;44826;51.596;5.624;2022-07-11T08:40:22;2.95;;;1.90;;
59042;SDS011;44826;51.596;5.624;2022-07-11T08:42:47;3.92;;;2.20;;
59042;SDS011;44826;51.596;5.624;2022-07-11T08:45:13;3.90;;;2.30;;
59042;SDS011;44826;51.596;5.624;2022-07-11T08:47:40;3.58;;;2.58;;
59042;SDS011;44826;51.596;5.624;2022-07-11T08:50:06;3.80;;;2.60;;
59042;SDS011;44826;51.596;5.624;2022-07-11T08:52:32;4.35;;;2.88;;
59042;SDS011;44826;51.596;5.624;2022-07-11T08:54:58;5.05;;;3.40;;
59042;SDS011;44826;51.596;5.624;2022-07-11T08:57:24;5.53;;;3.88;;
59042;SDS011;44826;51.596;5.624;2022-07-11T08:59:53;5.22;;;3.90;;
59042;SDS011;44826;51.596;5.624;2022-07-11T09:02:20;6.17;;;4.20;;
59042;SDS011;44826;51.596;5.624;2022-07-11T09:04:47;7.55;;;4.28;;
59042;SDS011;44826;51.596;5.624;2022-07-11T09:07:13;6.45;;;4.22;;
59042;SDS011;44826;51.596;5.624;2022-07-11T09:09:38;7.20;;;4.25;;
59042;SDS011;44826;51.596;5.624;2022-07-11T09:12:09;7.53;;;4.13;;
59042;SDS011;44826;51.596;5.624;2022-07-11T09:14:36;5.57;;;4.10;;
59042;SDS011;44826;51.596;5.624;2022-07-11T09:17:04;6.93;;;4.63;;
59042;SDS011;44826;51.596;5.624;2022-07-11T09:19:31;8.88;;;4.10;;
59042;SDS011;44826;51.596;5.624;2022-07-11T09:22:08;6.30;;;4.07;;
59042;SDS011;44826;51.596;5.624;2022-07-11T09:24:58;5.00;;;3.42;;
59042;SDS011;44826;51.596;5.624;2022-07-11T09:28:04;4.88;;;3.70;;
59042;SDS011;44826;51.596;5.624;2022-07-11T09:32:58;5.28;;;3.20;;
59042;SDS011;44826;51.596;5.624;2022-07-11T09:35:26;4.50;;;2.90;;
59042;SDS011;44826;51.596;5.624;2022-07-11T09:37:54;4.15;;;2.88;;
59042;SDS011;44826;51.596;5.624;2022-07-11T09:40:20;3.63;;;2.50;;
59042;SDS011;44826;51.596;5.624;2022-07-11T09:45:15;3.55;;;2.45;;
59042;SDS011;44826;51.596;5.624;2022-07-11T09:47:42;3.45;;;2.25;;
59042;SDS011;44826;51.596;5.624;2022-07-11T09:50:08;3.05;;;2.15;;
59042;SDS011;44826;51.596;5.624;2022-07-11T09:52:34;3.17;;;2.22;;
59042;SDS011;44826;51.596;5.624;2022-07-11T09:55:00;4.07;;;2.33;;
59042;SDS011;44826;51.596;5.624;2022-07-11T09:57:28;3.55;;;2.33;;
59042;SDS011;44826;51.596;5.624;2022-07-11T09:59:56;3.28;;;2.17;;
59042;SDS011;44826;51.596;5.624;2022-07-11T10:02:22;3.60;;;2.22;;
59042;SDS011;44826;51.596;5.624;2022-07-11T10:04:48;4.10;;;2.30;;
59042;SDS011;44826;51.596;5.624;2022-07-11T10:07:14;3.67;;;2.47;;
59042;SDS011;44826;51.596;5.624;2022-07-11T10:09:40;3.05;;;2.20;;
59042;SDS011;44826;51.596;5.624;2022-07-11T10:12:05;2.63;;;2.10;;
59042;SDS011;44826;51.596;5.624;2022-07-11T10:14:34;2.65;;;1.90;;
59042;SDS011;44826;51.596;5.624;2022-07-11T10:17:02;2.15;;;1.60;;
59042;SDS011;44826;51.596;5.624;2022-07-11T10:22:19;1.52;;;1.40;;
59042;SDS011;44826;51.596;5.624;2022-07-11T10:25:04;2.35;;;1.55;;
59042;SDS011;44826;51.596;5.624;2022-07-11T10:30:04;1.30;;;1.20;;
59042;SDS011;44826;51.596;5.624;2022-07-11T10:32:30;2.05;;;1.38;;
59042;SDS011;44826;51.596;5.624;2022-07-11T10:35:11;1.30;;;1.20;;
59042;SDS011;44826;51.596;5.624;2022-07-11T10:37:51;3.55;;;1.20;;
59042;SDS011;44826;51.596;5.624;2022-07-11T10:41:04;5.25;;;1.48;;
59042;SDS011;44826;51.596;5.624;2022-07-11T10:43:08;1.92;;;1.40;;
59042;SDS011;44826;51.596;5.624;2022-07-11T10:48:20;2.25;;;1.60;;
59042;SDS011;44826;51.596;5.624;2022-07-11T10:50:45;1.70;;;1.60;;
59042;SDS011;44826;51.596;5.624;2022-07-11T10:53:19;2.75;;;1.80;;
59042;SDS011;44826;51.596;5.624;2022-07-11T10:55:47;2.25;;;1.80;;
59042;SDS011;44826;51.596;5.624;2022-07-11T10:58:25;2.03;;;1.83;;
59042;SDS011;44826;51.596;5.624;2022-07-11T11:03:44;2.38;;;1.90;;
59042;SDS011;44826;51.596;5.624;2022-07-11T11:06:09;3.38;;;2.38;;
59042;SDS011;44826;51.596;5.624;2022-07-11T11:11:06;3.17;;;2.30;;
59042;SDS011;44826;51.596;5.624;2022-07-11T11:13:52;4.47;;;2.70;;
59042;SDS011;44826;51.596;5.624;2022-07-11T11:16:40;2.67;;;2.28;;
59042;SDS011;44826;51.596;5.624;2022-07-11T11:19:06;4.15;;;2.50;;
59042;SDS011;44826;51.596;5.624;2022-07-11T11:21:32;2.97;;;2.13;;
59042;SDS011;44826;51.596;5.624;2022-07-11T11:26:44;1.60;;;1.50;;
59042;SDS011;44826;51.596;5.624;2022-07-11T11:29:18;2.53;;;1.40;;
59042;SDS011;44826;51.596;5.624;2022-07-11T11:31:48;1.70;;;1.60;;
59042;SDS011;44826;51.596;5.624;2022-07-11T11:34:14;2.08;;;1.55;;
59042;SDS011;44826;51.596;5.624;2022-07-11T11:36:40;1.55;;;1.30;;
59042;SDS011;44826;51.596;5.624;2022-07-11T11:39:06;1.30;;;1.20;;
59042;SDS011;44826;51.596;5.624;2022-07-11T11:41:32;1.88;;;1.48;;
59042;SDS011;44826;51.596;5.624;2022-07-11T11:43:58;1.42;;;1.27;;
59042;SDS011;44826;51.596;5.624;2022-07-11T11:46:29;2.38;;;1.67;;
59042;SDS011;44826;51.596;5.624;2022-07-11T11:48:56;3.08;;;1.52;;
59042;SDS011;44826;51.596;5.624;2022-07-11T11:51:23;1.83;;;1.63;;
59042;SDS011;44826;51.596;5.624;2022-07-11T11:53:51;2.10;;;1.45;;
59042;SDS011;44826;51.596;5.624;2022-07-11T11:56:22;1.60;;;1.50;;
59042;SDS011;44826;51.596;5.624;2022-07-11T11:58:49;2.08;;;1.58;;
59042;SDS011;44826;51.596;5.624;2022-07-11T12:01:20;2.10;;;1.45;;
59042;SDS011;44826;51.596;5.624;2022-07-11T12:03:53;2.13;;;1.67;;
59042;SDS011;44826;51.596;5.624;2022-07-11T12:06:33;1.90;;;1.70;;
59042;SDS011;44826;51.596;5.624;2022-07-11T12:09:00;1.98;;;1.55;;
59042;SDS011;44826;51.596;5.624;2022-07-11T12:11:26;1.90;;;1.70;;
59042;SDS011;44826;51.596;5.624;2022-07-11T12:13:56;1.67;;;1.58;;
59042;SDS011;44826;51.596;5.624;2022-07-11T12:16:25;2.58;;;1.60;;
59042;SDS011;44826;51.596;5.624;2022-07-11T12:19:17;1.83;;;1.40;;
59042;SDS011;44826;51.596;5.624;2022-07-11T12:21:45;3.08;;;1.60;;
59042;SDS011;44826;51.596;5.624;2022-07-11T12:24:16;1.77;;;1.40;;
59042;SDS011;44826;51.596;5.624;2022-07-11T12:26:43;1.85;;;1.30;;
59042;SDS011;44826;51.596;5.624;2022-07-11T12:29:13;1.40;;;1.20;;
59042;SDS011;44826;51.596;5.624;2022-07-11T12:34:13;1.50;;;1.30;;
59042;SDS011;44826;51.596;5.624;2022-07-11T12:36:39;1.30;;;1.20;;
59042;SDS011;44826;51.596;5.624;2022-07-11T12:39:05;2.63;;;1.20;;
59042;SDS011;44826;51.596;5.624;2022-07-11T12:41:31;1.65;;;1.17;;
59042;SDS011;44826;51.596;5.624;2022-07-11T12:43:56;1.75;;;1.00;;
59042;SDS011;44826;51.596;5.624;2022-07-11T12:46:41;1.77;;;1.13;;
59042;SDS011;44826;51.596;5.624;2022-07-11T12:49:08;1.58;;;1.20;;
59042;SDS011;44826;51.596;5.624;2022-07-11T12:51:38;1.45;;;1.25;;
59042;SDS011;44826;51.596;5.624;2022-07-11T12:54:11;1.30;;;1.20;;
59042;SDS011;44826;51.596;5.624;2022-07-11T12:56:40;1.52;;;1.00;;
59042;SDS011;44826;51.596;5.624;2022-07-11T12:59:20;1.58;;;1.20;;
59042;SDS011;44826;51.596;5.624;2022-07-11T13:01:53;1.45;;;1.35;;
59042;SDS011;44826;51.596;5.624;2022-07-11T13:04:33;1.90;;;1.70;;
59042;SDS011;44826;51.596;5.624;2022-07-11T13:07:26;2.13;;;1.55;;
59042;SDS011;44826;51.596;5.624;2022-07-11T13:10:15;1.45;;;1.35;;
59042;SDS011;44826;51.596;5.624;2022-07-11T13:12:42;1.90;;;1.30;;
59042;SDS011;44826;51.596;5.624;2022-07-11T13:15:08;2.00;;;1.58;;
59042;SDS011;44826;51.596;5.624;2022-07-11T13:17:42;4.40;;;1.70;;
59042;SDS011;44826;51.596;5.624;2022-07-11T13:20:10;2.35;;;1.58;;
59042;SDS011;44826;51.596;5.624;2022-07-11T13:22:40;1.75;;;1.40;;
59042;SDS011;44826;51.596;5.624;2022-07-11T13:25:07;1.40;;;1.17;;
59042;SDS011;44826;51.596;5.624;2022-07-11T13:27:33;1.48;;;1.38;;
59042;SDS011;44826;51.596;5.624;2022-07-11T13:29:59;1.30;;;1.20;;
59042;SDS011;44826;51.596;5.624;2022-07-11T13:32:24;1.20;;;1.10;;
59042;SDS011;44826;51.596;5.624;2022-07-11T13:34:50;1.25;;;1.10;;
59042;SDS011;44826;51.596;5.624;2022-07-11T13:37:15;1.70;;;1.10;;
59042;SDS011;44826;51.596;5.624;2022-07-11T13:39:41;1.23;;;1.00;;
59042;SDS011;44826;51.596;5.624;2022-07-11T13:42:06;2.00;;;0.98;;
59042;SDS011;44826;51.596;5.624;2022-07-11T13:44:32;1.25;;;1.15;;
59042;SDS011;44826;51.596;5.624;2022-07-11T13:46:57;2.65;;;1.00;;
59042;SDS011;44826;51.596;5.624;2022-07-11T13:49:23;1.20;;;1.10;;
59042;SDS011;44826;51.596;5.624;2022-07-11T13:51:48;1.02;;;0.95;;
59042;SDS011;44826;51.596;5.624;2022-07-11T13:54:14;1.25;;;1.10;;
59042;SDS011;44826;51.596;5.624;2022-07-11T13:56:39;1.20;;;1.10;;
59042;SDS011;44826;51.596;5.624;2022-07-11T13:59:04;1.10;;;1.00;;
59042;SDS011;44826;51.596;5.624;2022-07-11T14:01:29;0.88;;;0.88;;
59042;SDS011;44826;51.596;5.624;2022-07-11T14:03:55;1.02;;;0.93;;
59042;SDS011;44826;51.596;5.624;2022-07-11T14:06:22;1.20;;;1.10;;
59042;SDS011;44826;51.596;5.624;2022-07-11T14:08:47;1.55;;;1.20;;
59042;SDS011;44826;51.596;5.624;2022-07-11T14:11:12;1.00;;;0.90;;
59042;SDS011;44826;51.596;5.624;2022-07-11T14:13:38;1.15;;;0.90;;
59042;SDS011;44826;51.596;5.624;2022-07-11T14:16:03;1.10;;;0.90;;
59042;SDS011;44826;51.596;5.624;2022-07-11T14:18:31;0.88;;;0.80;;
59042;SDS011;44826;51.596;5.624;2022-07-11T14:20:57;1.10;;;0.85;;
59042;SDS011;44826;51.596;5.624;2022-07-11T14:23:22;0.60;;;0.60;;
59042;SDS011;44826;51.596;5.624;2022-07-11T14:25:49;0.85;;;0.68;;
59042;SDS011;44826;51.596;5.624;2022-07-11T14:28:16;1.10;;;1.00;;
59042;SDS011;44826;51.596;5.624;2022-07-11T14:30:42;1.73;;;0.90;;
59042;SDS011;44826;51.596;5.624;2022-07-11T14:33:08;1.75;;;0.98;;
59042;SDS011;44826;51.596;5.624;2022-07-11T14:35:34;1.73;;;1.25;;
59042;SDS011;44826;51.596;5.624;2022-07-11T14:37:59;1.40;;;1.10;;
59042;SDS011;44826;51.596;5.624;2022-07-11T14:40:24;1.42;;;1.13;;
59042;SDS011;44826;51.596;5.624;2022-07-11T14:42:50;1.17;;;0.93;;
59042;SDS011;44826;51.596;5.624;2022-07-11T14:45:16;1.60;;;1.20;;
59042;SDS011;44826;51.596;5.624;2022-07-11T14:47:42;1.50;;;1.25;;
59042;SDS011;44826;51.596;5.624;2022-07-11T14:50:07;1.08;;;0.82;;
59042;SDS011;44826;51.596;5.624;2022-07-11T14:52:33;2.22;;;0.77;;
59042;SDS011;44826;51.596;5.624;2022-07-11T14:54:59;0.80;;;0.80;;
59042;SDS011;44826;51.596;5.624;2022-07-11T14:57:24;1.45;;;0.80;;
59042;SDS011;44826;51.596;5.624;2022-07-11T14:59:49;1.08;;;0.98;;
59042;SDS011;44826;51.596;5.624;2022-07-11T15:02:15;0.88;;;0.88;;
59042;SDS011;44826;51.596;5.624;2022-07-11T15:04:41;2.10;;;0.70;;
59042;SDS011;44826;51.596;5.624;2022-07-11T15:07:06;1.13;;;0.70;;
59042;SDS011;44826;51.596;5.624;2022-07-11T15:09:50;0.80;;;0.80;;